createdAt,value
2017-07-21T00:00:01.089Z,21.0
2017-07-21T00:01:02.511Z,20.6
2017-07-21T00:02:24.525Z,20.7
2017-07-21T00:03:25.957Z,20.7
2017-07-21T00:04:47.492Z,20.6
2017-07-21T00:05:48.901Z,20.5
2017-07-21T00:07:10.571Z,20.6
2017-07-21T00:08:11.934Z,20.6
2017-07-21T00:09:33.554Z,20.5
2017-07-21T00:10:34.918Z,20.3
2017-07-21T00:11:56.482Z,20.3
2017-07-21T00:12:57.840Z,20.2
2017-07-21T00:14:19.543Z,20.0
2017-07-21T00:15:20.906Z,20.1
2017-07-21T00:16:42.479Z,20.1
2017-07-21T00:17:43.910Z,20.0
2017-07-21T00:19:05.467Z,20.0
2017-07-21T00:20:06.840Z,19.9
2017-07-21T00:21:28.424Z,19.9
2017-07-21T00:22:29.835Z,19.7
2017-07-21T00:23:51.356Z,20.0
2017-07-21T00:24:52.731Z,19.9
2017-07-21T00:26:14.277Z,19.9
2017-07-21T00:27:15.702Z,20.0
2017-07-21T00:28:37.216Z,20.0
2017-07-21T00:29:38.605Z,20.0
2017-07-21T00:31:00.148Z,20.0
2017-07-21T00:32:01.511Z,20.0
2017-07-21T00:33:23.031Z,19.9
2017-07-21T00:34:24.396Z,19.8
2017-07-21T00:35:45.962Z,19.9
2017-07-21T00:36:47.353Z,19.7
2017-07-21T00:38:08.910Z,19.7
2017-07-21T00:39:10.366Z,19.7
2017-07-21T00:40:31.903Z,19.8
2017-07-21T00:41:33.264Z,19.8
2017-07-21T00:42:54.870Z,19.8
2017-07-21T00:43:56.302Z,19.8
2017-07-21T00:45:17.922Z,19.8
2017-07-21T00:46:19.303Z,19.7
2017-07-21T00:47:40.889Z,19.7
2017-07-21T00:48:42.288Z,19.7
2017-07-21T00:50:03.916Z,19.7
2017-07-21T00:51:05.278Z,19.8
2017-07-21T00:52:26.799Z,19.7
2017-07-21T00:53:28.169Z,19.7
2017-07-21T00:54:49.714Z,19.7
2017-07-21T00:55:51.149Z,19.6
2017-07-21T00:57:12.663Z,19.7
2017-07-21T00:58:14.028Z,19.6
2017-07-21T00:59:35.605Z,19.6
2017-07-21T01:00:36.967Z,19.5
2017-07-21T01:01:58.983Z,19.6
2017-07-21T01:03:00.400Z,19.5
2017-07-21T01:04:21.960Z,19.5
2017-07-21T01:05:23.333Z,19.5
2017-07-21T01:06:44.862Z,19.4
2017-07-21T01:07:46.278Z,19.4
2017-07-21T01:09:07.874Z,19.4
2017-07-21T01:10:09.238Z,19.4
2017-07-21T01:11:31.270Z,19.4
2017-07-21T01:12:32.634Z,19.3
2017-07-21T01:13:54.195Z,19.3
2017-07-21T01:14:55.553Z,19.3
2017-07-21T01:16:17.092Z,19.3
2017-07-21T01:17:18.475Z,19.3
2017-07-21T01:18:39.995Z,19.3
2017-07-21T01:19:41.358Z,19.3
2017-07-21T01:21:03.049Z,19.4
2017-07-21T01:22:04.415Z,19.4
2017-07-21T01:23:25.928Z,19.4
2017-07-21T01:24:27.291Z,19.3
2017-07-21T01:25:48.830Z,19.3
2017-07-21T01:26:50.189Z,19.3
2017-07-21T01:28:11.706Z,19.3
2017-07-21T01:29:13.068Z,19.2
2017-07-21T01:30:34.604Z,19.3
2017-07-21T01:31:35.967Z,19.2
2017-07-21T01:32:57.484Z,19.2
2017-07-21T01:33:58.852Z,19.2
2017-07-21T01:35:20.445Z,19.2
2017-07-21T01:36:21.809Z,19.1
2017-07-21T01:37:43.363Z,19.1
2017-07-21T01:38:44.739Z,19.0
2017-07-21T01:40:06.268Z,19.1
2017-07-21T01:41:07.635Z,19.1
2017-07-21T01:42:29.659Z,19.1
2017-07-21T01:43:31.028Z,19.0
2017-07-21T01:44:52.545Z,19.1
2017-07-21T01:45:53.946Z,19.0
2017-07-21T01:47:15.558Z,19.0
2017-07-21T01:48:16.947Z,19.0
2017-07-21T01:49:38.505Z,19.0
2017-07-21T01:50:39.871Z,19.0
2017-07-21T01:52:01.441Z,19.0
2017-07-21T01:53:02.802Z,19.0
2017-07-21T01:54:24.378Z,18.9
2017-07-21T01:55:25.794Z,19.1
2017-07-21T01:56:47.329Z,19.1
2017-07-21T01:57:48.730Z,19.0
2017-07-21T01:59:10.286Z,19.0
2017-07-21T02:00:11.695Z,18.9
2017-07-21T02:01:33.350Z,19.0
2017-07-21T02:02:34.714Z,18.9
2017-07-21T02:03:56.260Z,18.8
2017-07-21T02:04:57.686Z,18.8
2017-07-21T02:06:19.301Z,18.8
2017-07-21T02:07:20.662Z,18.8
2017-07-21T02:08:42.224Z,18.9
2017-07-21T02:09:43.584Z,18.8
2017-07-21T02:11:05.119Z,18.8
2017-07-21T02:12:06.481Z,18.8
2017-07-21T02:13:28.004Z,18.9
2017-07-21T02:14:29.362Z,18.8
2017-07-21T02:15:50.900Z,18.9
2017-07-21T02:16:52.260Z,18.9
2017-07-21T02:18:13.781Z,18.7
2017-07-21T02:19:15.141Z,18.8
2017-07-21T02:20:36.678Z,18.9
2017-07-21T02:21:38.037Z,18.8
2017-07-21T02:22:59.551Z,18.8
2017-07-21T02:24:00.914Z,18.8
2017-07-21T02:25:22.664Z,18.9
2017-07-21T02:26:24.026Z,18.8
2017-07-21T02:27:45.544Z,18.8
2017-07-21T02:28:47.019Z,18.8
2017-07-21T02:30:09.032Z,18.8
2017-07-21T02:31:10.404Z,18.7
2017-07-21T02:32:31.927Z,18.7
2017-07-21T02:33:33.289Z,18.6
2017-07-21T02:34:54.811Z,18.7
2017-07-21T02:35:56.172Z,18.6
2017-07-21T02:37:17.708Z,18.7
2017-07-21T02:38:19.081Z,18.7
2017-07-21T02:39:41.082Z,18.7
2017-07-21T02:40:42.444Z,18.6
2017-07-21T02:42:04.474Z,18.7
2017-07-21T02:43:05.838Z,18.6
2017-07-21T02:44:27.359Z,18.6
2017-07-21T02:45:28.723Z,18.5
2017-07-21T02:46:50.258Z,18.5
2017-07-21T02:47:51.618Z,18.6
2017-07-21T02:49:13.136Z,18.6
2017-07-21T02:50:14.496Z,18.5
2017-07-21T02:51:36.034Z,18.5
2017-07-21T02:52:37.392Z,18.4
2017-07-21T02:53:58.912Z,18.5
2017-07-21T02:55:00.279Z,18.5
2017-07-21T02:56:21.810Z,18.5
2017-07-21T02:57:23.172Z,18.4
2017-07-21T02:58:44.692Z,18.4
2017-07-21T02:59:46.161Z,18.2
2017-07-21T03:01:08.207Z,18.2
2017-07-21T03:02:09.568Z,18.1
2017-07-21T03:03:31.283Z,18.1
2017-07-21T03:04:32.646Z,18.0
2017-07-21T03:05:54.181Z,18.1
2017-07-21T03:06:55.544Z,18.1
2017-07-21T03:08:17.061Z,18.1
2017-07-21T03:09:18.424Z,18.1
2017-07-21T03:10:39.957Z,18.1
2017-07-21T03:11:41.318Z,18.1
2017-07-21T03:13:02.853Z,18.1
2017-07-21T03:14:04.213Z,18.1
2017-07-21T03:15:25.735Z,18.1
2017-07-21T03:16:27.099Z,18.1
2017-07-21T03:17:48.632Z,18.1
2017-07-21T03:18:49.995Z,18.1
2017-07-21T03:20:11.733Z,18.0
2017-07-21T03:21:13.113Z,18.0
2017-07-21T03:22:34.627Z,18.0
2017-07-21T03:23:35.989Z,17.9
2017-07-21T03:24:57.509Z,18.0
2017-07-21T03:25:58.872Z,18.1
2017-07-21T03:27:20.408Z,18.1
2017-07-21T03:28:21.774Z,18.1
2017-07-21T03:29:43.290Z,18.1
2017-07-21T03:30:44.655Z,18.2
2017-07-21T03:32:06.403Z,18.1
2017-07-21T03:33:07.767Z,18.1
2017-07-21T03:34:29.296Z,18.0
2017-07-21T03:35:30.660Z,18.0
2017-07-21T03:36:52.203Z,18.0
2017-07-21T03:37:53.563Z,18.0
2017-07-21T03:39:15.080Z,17.9
2017-07-21T03:40:16.445Z,17.8
2017-07-21T03:41:37.982Z,17.8
2017-07-21T03:42:39.348Z,17.8
2017-07-21T03:44:00.870Z,17.8
2017-07-21T03:45:02.231Z,17.8
2017-07-21T03:46:23.768Z,17.8
2017-07-21T03:47:25.130Z,17.8
2017-07-21T03:48:46.655Z,17.8
2017-07-21T03:49:48.017Z,17.9
2017-07-21T03:51:09.548Z,18.0
2017-07-21T03:52:10.912Z,18.0
2017-07-21T03:53:32.431Z,17.9
2017-07-21T03:54:33.797Z,17.9
2017-07-21T03:55:55.311Z,17.8
2017-07-21T03:56:56.675Z,17.9
2017-07-21T03:58:18.213Z,17.8
2017-07-21T03:59:19.577Z,17.9
2017-07-21T04:00:41.098Z,18.0
2017-07-21T04:01:42.465Z,18.1
2017-07-21T04:03:04.006Z,18.1
2017-07-21T04:04:05.366Z,18.2
2017-07-21T04:05:26.891Z,18.3
2017-07-21T04:06:28.252Z,18.5
2017-07-21T04:07:49.793Z,18.6
2017-07-21T04:08:51.155Z,18.7
2017-07-21T04:10:12.677Z,18.9
2017-07-21T04:11:14.044Z,19.0
2017-07-21T04:12:35.581Z,19.1
2017-07-21T04:13:36.947Z,19.3
2017-07-21T04:14:58.468Z,19.5
2017-07-21T04:15:59.834Z,19.5
2017-07-21T04:17:21.374Z,19.7
2017-07-21T04:18:22.740Z,19.8
2017-07-21T04:19:44.261Z,20.1
2017-07-21T04:20:45.629Z,20.0
2017-07-21T04:22:07.169Z,20.0
2017-07-21T04:23:08.535Z,19.8
2017-07-21T04:24:30.057Z,19.7
2017-07-21T04:25:31.426Z,19.7
2017-07-21T04:26:52.961Z,19.7
2017-07-21T04:27:54.328Z,19.7
2017-07-21T04:29:15.849Z,19.9
2017-07-21T04:30:17.219Z,20.0
2017-07-21T04:31:38.759Z,20.2
2017-07-21T04:32:40.127Z,20.4
2017-07-21T04:34:01.654Z,20.7
2017-07-21T04:35:03.023Z,20.9
2017-07-21T04:36:24.564Z,21.0
2017-07-21T04:37:25.934Z,21.1
2017-07-21T04:38:47.949Z,21.3
2017-07-21T04:39:49.318Z,21.5
2017-07-21T04:41:10.844Z,21.8
2017-07-21T04:42:12.214Z,22.0
2017-07-21T04:43:33.755Z,22.2
2017-07-21T04:44:35.123Z,22.2
2017-07-21T04:45:57.143Z,22.2
2017-07-21T04:46:58.512Z,22.0
2017-07-21T04:48:20.056Z,21.9
2017-07-21T04:49:21.425Z,21.7
2017-07-21T04:50:42.952Z,21.5
2017-07-21T04:51:44.320Z,21.4
2017-07-21T04:53:06.012Z,21.3
2017-07-21T04:54:07.380Z,21.4
2017-07-21T04:55:28.907Z,21.2
2017-07-21T04:56:30.277Z,21.4
2017-07-21T04:57:51.820Z,21.6
2017-07-21T04:58:53.189Z,21.7
2017-07-21T05:00:14.718Z,22.1
2017-07-21T05:01:16.086Z,22.2
2017-07-21T05:02:37.628Z,22.7
2017-07-21T05:03:38.997Z,22.9
2017-07-21T05:05:00.547Z,23.1
2017-07-21T05:06:01.891Z,23.1
2017-07-21T05:07:23.439Z,23.1
2017-07-21T05:08:24.808Z,23.0
2017-07-21T05:09:46.338Z,23.1
2017-07-21T05:10:47.710Z,23.5
2017-07-21T05:12:09.254Z,23.6
2017-07-21T05:13:10.624Z,23.7
2017-07-21T05:14:32.156Z,23.8
2017-07-21T05:15:33.524Z,23.8
2017-07-21T05:16:55.050Z,23.7
2017-07-21T05:17:56.422Z,23.7
2017-07-21T05:19:17.969Z,23.5
2017-07-21T05:20:19.337Z,23.5
2017-07-21T05:21:40.869Z,23.5
2017-07-21T05:22:42.239Z,23.7
2017-07-21T05:24:03.787Z,24.0
2017-07-21T05:25:05.158Z,24.0
2017-07-21T05:26:26.687Z,24.3
2017-07-21T05:27:28.060Z,24.5
2017-07-21T05:28:49.614Z,24.7
2017-07-21T05:29:50.988Z,24.6
2017-07-21T05:31:12.521Z,24.8
2017-07-21T05:32:13.892Z,25.2
2017-07-21T05:33:35.439Z,25.5
2017-07-21T05:34:36.815Z,25.7
2017-07-21T05:35:58.341Z,25.6
2017-07-21T05:36:59.713Z,25.7
2017-07-21T05:38:21.267Z,25.8
2017-07-21T05:39:22.638Z,25.6
2017-07-21T05:40:44.174Z,25.6
2017-07-21T05:41:45.555Z,25.7
2017-07-21T05:43:07.117Z,25.7
2017-07-21T05:44:08.493Z,25.7
2017-07-21T05:45:30.026Z,25.6
2017-07-21T05:46:31.397Z,25.6
2017-07-21T05:47:52.949Z,25.6
2017-07-21T05:48:54.324Z,25.6
2017-07-21T05:50:15.855Z,25.9
2017-07-21T05:51:17.230Z,26.0
2017-07-21T05:52:38.784Z,26.1
2017-07-21T05:53:40.161Z,26.1
2017-07-21T05:55:01.691Z,26.3
2017-07-21T05:56:03.067Z,26.5
2017-07-21T05:57:24.600Z,26.4
2017-07-21T05:58:25.975Z,26.6
2017-07-21T05:59:47.527Z,26.8
2017-07-21T06:00:48.901Z,26.5
2017-07-21T06:02:10.436Z,26.5
2017-07-21T06:03:11.810Z,26.4
2017-07-21T06:04:33.362Z,26.0
2017-07-21T06:05:34.737Z,26.3
2017-07-21T06:06:56.280Z,26.3
2017-07-21T06:07:57.655Z,26.1
2017-07-21T06:09:19.211Z,26.3
2017-07-21T06:10:20.585Z,26.2
2017-07-21T06:11:42.121Z,26.2
2017-07-21T06:12:43.494Z,26.3
2017-07-21T06:14:05.051Z,26.6
2017-07-21T06:15:06.425Z,26.8
2017-07-21T06:16:27.959Z,27.1
2017-07-21T06:17:29.335Z,27.0
2017-07-21T06:18:50.890Z,26.5
2017-07-21T06:19:52.263Z,26.3
2017-07-21T06:21:13.802Z,26.4
2017-07-21T06:22:15.178Z,26.4
2017-07-21T06:23:36.736Z,26.8
2017-07-21T06:24:38.110Z,26.6
2017-07-21T06:25:59.648Z,26.5
2017-07-21T06:27:01.023Z,26.7
2017-07-21T06:28:22.579Z,26.5
2017-07-21T06:29:23.956Z,26.0
2017-07-21T06:30:45.494Z,26.1
2017-07-21T06:31:46.871Z,26.1
2017-07-21T06:33:08.428Z,26.1
2017-07-21T06:34:09.808Z,26.1
2017-07-21T06:35:31.343Z,25.8
2017-07-21T06:36:32.720Z,26.1
2017-07-21T06:37:55.281Z,26.2
2017-07-21T06:38:56.653Z,26.2
2017-07-21T06:40:18.189Z,25.9
2017-07-21T06:41:19.566Z,26.3
2017-07-21T06:42:41.106Z,26.3
2017-07-21T06:43:42.483Z,25.4
2017-07-21T06:45:04.046Z,25.5
2017-07-21T06:46:05.419Z,25.5
2017-07-21T06:47:26.962Z,25.7
2017-07-21T06:48:28.336Z,25.5
2017-07-21T06:49:49.891Z,25.5
2017-07-21T06:50:51.270Z,25.6
2017-07-21T06:52:12.806Z,25.8
2017-07-21T06:53:14.184Z,25.8
2017-07-21T06:54:35.771Z,25.8
2017-07-21T06:55:37.149Z,25.8
2017-07-21T06:56:58.694Z,25.8
2017-07-21T06:58:00.073Z,25.5
2017-07-21T06:59:21.635Z,25.3
2017-07-21T07:00:23.011Z,25.5
2017-07-21T07:01:44.562Z,25.7
2017-07-21T07:02:45.943Z,25.5
2017-07-21T07:04:07.504Z,25.8
2017-07-21T07:05:08.879Z,25.7
2017-07-21T07:06:30.419Z,25.6
2017-07-21T07:07:31.796Z,25.2
2017-07-21T07:08:53.355Z,25.0
2017-07-21T07:09:54.730Z,24.7
2017-07-21T07:11:16.279Z,24.7
2017-07-21T07:12:17.656Z,24.6
2017-07-21T07:13:39.215Z,24.6
2017-07-21T07:14:40.590Z,24.7
2017-07-21T07:16:02.136Z,24.8
2017-07-21T07:17:03.509Z,24.8
2017-07-21T07:18:25.072Z,24.9
2017-07-21T07:19:26.447Z,25.1
2017-07-21T07:20:48.002Z,25.1
2017-07-21T07:21:49.377Z,25.3
2017-07-21T07:23:10.945Z,25.7
2017-07-21T07:24:12.323Z,25.8
2017-07-21T07:25:33.895Z,25.9
2017-07-21T07:26:35.272Z,26.0
2017-07-21T07:27:57.301Z,26.1
2017-07-21T07:28:58.677Z,26.1
2017-07-21T07:30:20.237Z,26.1
2017-07-21T07:31:21.611Z,26.1
2017-07-21T07:32:43.147Z,26.0
2017-07-21T07:33:44.629Z,26.0
2017-07-21T07:35:06.195Z,25.9
2017-07-21T07:36:07.573Z,26.0
2017-07-21T07:37:29.115Z,26.0
2017-07-21T07:38:30.491Z,25.9
2017-07-21T07:39:52.049Z,25.6
2017-07-21T07:40:53.423Z,25.6
2017-07-21T07:42:14.959Z,25.5
2017-07-21T07:43:16.333Z,25.6
2017-07-21T07:44:39.382Z,25.6
2017-07-21T07:45:40.768Z,25.6
2017-07-21T07:47:02.303Z,25.5
2017-07-21T07:48:03.676Z,25.5
2017-07-21T07:49:25.234Z,25.4
2017-07-21T07:50:26.610Z,25.1
2017-07-21T07:51:48.143Z,25.2
2017-07-21T07:52:49.517Z,25.4
2017-07-21T07:54:11.073Z,25.5
2017-07-21T07:55:12.444Z,25.5
2017-07-21T07:56:33.978Z,25.4
2017-07-21T07:57:35.355Z,25.5
2017-07-21T07:58:56.906Z,25.5
2017-07-21T07:59:58.287Z,25.4
2017-07-21T08:01:19.811Z,25.3
2017-07-21T08:02:21.185Z,25.4
2017-07-21T08:03:42.737Z,25.3
2017-07-21T08:04:44.116Z,25.3
2017-07-21T08:06:05.652Z,25.1
2017-07-21T08:07:07.026Z,25.2
2017-07-21T08:08:28.561Z,25.1
2017-07-21T08:09:29.933Z,24.9
2017-07-21T08:10:51.491Z,24.9
2017-07-21T08:11:52.860Z,24.8
2017-07-21T08:13:14.889Z,24.9
2017-07-21T08:14:16.280Z,25.0
2017-07-21T08:15:37.816Z,25.0
2017-07-21T08:16:39.188Z,24.8
2017-07-21T08:18:00.724Z,24.9
2017-07-21T08:19:02.098Z,24.9
2017-07-21T08:20:23.651Z,24.7
2017-07-21T08:21:25.024Z,24.8
2017-07-21T08:22:46.558Z,24.8
2017-07-21T08:23:47.932Z,24.7
2017-07-21T08:25:09.484Z,24.7
2017-07-21T08:26:10.855Z,24.6
2017-07-21T08:27:32.390Z,24.6
2017-07-21T08:28:33.761Z,24.6
2017-07-21T08:29:55.311Z,24.4
2017-07-21T08:30:56.683Z,24.3
2017-07-21T08:32:18.709Z,24.2
2017-07-21T08:33:20.089Z,24.1
2017-07-21T08:34:41.633Z,23.9
2017-07-21T08:35:43.004Z,23.9
2017-07-21T08:37:04.540Z,24.1
2017-07-21T08:38:05.913Z,24.1
2017-07-21T08:39:27.464Z,24.2
2017-07-21T08:40:28.836Z,24.0
2017-07-21T08:41:50.376Z,23.9
2017-07-21T08:42:51.737Z,23.8
2017-07-21T08:44:13.287Z,23.7
2017-07-21T08:45:14.658Z,23.9
2017-07-21T08:46:36.189Z,23.8
2017-07-21T08:47:37.561Z,23.7
2017-07-21T08:48:59.111Z,23.6
2017-07-21T08:50:00.483Z,23.7
2017-07-21T08:51:22.021Z,23.8
2017-07-21T08:52:23.395Z,23.7
2017-07-21T08:53:44.926Z,23.7
2017-07-21T08:54:46.302Z,23.7
2017-07-21T08:56:07.847Z,23.9
2017-07-21T08:57:09.222Z,24.0
2017-07-21T08:58:30.758Z,24.0
2017-07-21T08:59:32.126Z,24.2
2017-07-21T09:00:53.718Z,24.2
2017-07-21T09:01:55.098Z,24.3
2017-07-21T09:03:16.623Z,24.5
2017-07-21T09:04:17.995Z,24.5
2017-07-21T09:05:39.546Z,24.6
2017-07-21T09:06:40.918Z,24.4
2017-07-21T09:08:02.449Z,24.2
2017-07-21T09:09:03.820Z,24.1
2017-07-21T09:10:25.408Z,24.1
2017-07-21T09:11:26.771Z,24.1
2017-07-21T09:12:48.303Z,24.4
2017-07-21T09:13:49.673Z,24.4
2017-07-21T09:15:12.222Z,24.4
2017-07-21T09:16:13.594Z,24.5
2017-07-21T09:17:35.135Z,24.6
2017-07-21T09:18:36.505Z,24.5
2017-07-21T09:19:58.065Z,24.5
2017-07-21T09:20:59.438Z,24.6
2017-07-21T09:22:20.970Z,24.8
2017-07-21T09:23:22.340Z,24.9
2017-07-21T09:24:44.402Z,25.0
2017-07-21T09:25:45.765Z,24.9
2017-07-21T09:27:07.300Z,24.8
2017-07-21T09:28:08.672Z,24.9
2017-07-21T09:29:30.226Z,24.9
2017-07-21T09:30:31.598Z,24.8
2017-07-21T09:31:53.135Z,24.8
2017-07-21T09:32:54.507Z,24.8
2017-07-21T09:34:16.066Z,25.0
2017-07-21T09:35:17.437Z,24.3
2017-07-21T09:36:38.970Z,24.5
2017-07-21T09:37:40.341Z,24.5
2017-07-21T09:39:01.871Z,24.2
2017-07-21T09:40:03.243Z,24.0
2017-07-21T09:41:24.795Z,23.8
2017-07-21T09:42:26.174Z,23.8
2017-07-21T09:43:47.782Z,23.8
2017-07-21T09:44:49.156Z,23.8
2017-07-21T09:46:10.709Z,23.9
2017-07-21T09:47:12.167Z,23.9
2017-07-21T09:48:33.721Z,24.2
2017-07-21T09:49:35.101Z,24.3
2017-07-21T09:50:56.853Z,24.2
2017-07-21T09:51:58.222Z,24.1
2017-07-21T09:53:19.762Z,24.2
2017-07-21T09:54:21.455Z,24.3
2017-07-21T09:55:43.006Z,24.5
2017-07-21T09:56:44.444Z,24.7
2017-07-21T09:58:05.981Z,24.8
2017-07-21T09:59:07.515Z,24.9
2017-07-21T10:00:29.059Z,24.9
2017-07-21T10:01:30.429Z,25.1
2017-07-21T10:02:52.204Z,25.2
2017-07-21T10:03:54.234Z,25.3
2017-07-21T10:05:17.207Z,25.6
2017-07-21T10:06:18.592Z,25.6
2017-07-21T10:07:40.165Z,25.6
2017-07-21T10:08:42.087Z,25.5
2017-07-21T10:10:03.834Z,25.7
2017-07-21T10:11:05.212Z,25.5
2017-07-21T10:12:27.056Z,25.5
2017-07-21T10:13:28.435Z,25.5
2017-07-21T10:14:50.476Z,25.6
2017-07-21T10:15:51.854Z,25.5
2017-07-21T10:17:13.404Z,25.5
2017-07-21T10:18:14.776Z,25.6
2017-07-21T10:19:36.339Z,25.6
2017-07-21T14:10:40.265Z,27.0
2017-07-21T14:11:41.641Z,27.2
2017-07-21T14:13:03.367Z,27.2
2017-07-21T14:14:04.737Z,27.1
2017-07-21T14:15:26.369Z,27.1
2017-07-21T14:16:28.241Z,27.0
2017-07-21T14:17:49.830Z,27.1
2017-07-21T14:18:51.210Z,27.0
2017-07-21T14:20:12.762Z,27.0
2017-07-21T14:21:14.221Z,27.2
2017-07-21T14:22:35.849Z,27.3
2017-07-21T14:23:37.306Z,27.3
2017-07-21T14:25:04.568Z,27.4
2017-07-21T14:26:05.974Z,27.5
2017-07-21T14:27:28.598Z,27.6
2017-07-21T14:28:29.972Z,27.6
2017-07-21T14:29:51.623Z,27.7
2017-07-21T14:30:53.000Z,27.7
2017-07-21T14:32:14.624Z,27.4
2017-07-21T14:33:16.010Z,27.1
2017-07-21T14:34:37.749Z,27.0
2017-07-21T14:35:39.329Z,27.2
2017-07-21T14:37:00.893Z,27.1
2017-07-21T14:38:02.270Z,27.2
2017-07-21T14:39:23.863Z,27.3
2017-07-21T14:40:25.242Z,27.3
2017-07-21T14:41:46.947Z,27.3
2017-07-21T14:42:48.331Z,27.2
2017-07-21T14:44:09.968Z,27.3
2017-07-21T14:45:11.584Z,27.2
2017-07-21T14:46:33.106Z,27.3
2017-07-21T14:47:34.479Z,27.3
2017-07-21T14:48:56.072Z,27.3
2017-07-21T14:49:57.637Z,27.3
2017-07-21T14:51:19.212Z,27.1
2017-07-21T14:52:20.584Z,27.0
2017-07-21T14:53:42.184Z,27.0
2017-07-21T14:54:43.557Z,26.9
2017-07-21T14:56:05.115Z,26.8
2017-07-21T14:57:06.487Z,27.0
2017-07-21T14:58:28.300Z,27.2
2017-07-21T14:59:29.685Z,27.2
2017-07-21T15:00:51.394Z,27.3
2017-07-21T15:01:52.939Z,27.3
2017-07-21T15:03:14.598Z,27.5
2017-07-21T15:04:15.973Z,27.6
2017-07-21T15:05:37.531Z,27.8
2017-07-21T15:06:38.900Z,27.8
2017-07-21T15:08:00.503Z,27.8
2017-07-21T15:09:01.873Z,27.9
2017-07-21T15:10:23.454Z,27.9
2017-07-21T15:11:24.839Z,27.8
2017-07-21T15:12:47.458Z,27.8
2017-07-21T15:13:48.831Z,27.6
2017-07-21T15:15:10.581Z,27.4
2017-07-21T15:16:11.984Z,27.4
2017-07-21T15:17:34.050Z,27.4
2017-07-21T15:18:35.425Z,27.4
2017-07-21T15:19:57.591Z,27.5
2017-07-21T15:20:58.971Z,27.6
2017-07-21T15:22:20.540Z,27.7
2017-07-21T15:23:21.912Z,27.8
2017-07-21T15:24:43.668Z,27.9
2017-07-21T15:25:45.051Z,28.0
2017-07-21T15:27:07.161Z,28.0
2017-07-21T15:28:08.533Z,27.9
2017-07-21T15:29:30.643Z,28.0
2017-07-21T15:30:32.014Z,27.8
2017-07-21T15:31:53.573Z,27.7
2017-07-21T15:32:54.944Z,27.7
2017-07-21T15:34:16.545Z,27.5
2017-07-21T15:35:17.919Z,27.6
2017-07-21T15:36:39.720Z,27.6
2017-07-21T15:37:41.100Z,27.5
2017-07-21T15:39:02.754Z,27.5
2017-07-21T15:40:04.128Z,27.6
2017-07-21T15:41:25.686Z,27.7
2017-07-21T15:42:27.058Z,27.7
2017-07-21T15:43:48.654Z,27.9
2017-07-21T15:44:50.027Z,27.9
2017-07-21T15:46:11.585Z,28.0
2017-07-21T15:47:12.957Z,27.9
2017-07-21T15:48:34.558Z,28.0
2017-07-21T15:49:35.929Z,28.0
2017-07-21T15:50:57.487Z,27.7
2017-07-21T15:51:58.861Z,27.5
2017-07-21T15:53:20.456Z,27.4
2017-07-21T15:54:21.827Z,27.3
2017-07-21T15:55:43.495Z,27.4
2017-07-21T15:56:44.862Z,27.3
2017-07-21T15:58:06.462Z,27.3
2017-07-21T15:59:07.836Z,27.4
2017-07-21T16:00:29.660Z,27.3
2017-07-21T16:01:31.038Z,27.3
2017-07-21T16:02:52.667Z,27.3
2017-07-21T16:03:54.041Z,27.4
2017-07-21T16:05:15.600Z,27.3
2017-07-21T16:06:16.973Z,27.4
2017-07-21T16:07:38.549Z,27.5
2017-07-21T16:08:39.921Z,27.6
2017-07-21T16:10:02.069Z,27.8
2017-07-21T16:11:03.442Z,27.7
2017-07-21T16:12:25.067Z,27.7
2017-07-21T16:13:26.440Z,27.7
2017-07-21T16:14:49.062Z,27.7
2017-07-21T16:15:50.431Z,27.8
2017-07-21T16:17:11.992Z,27.8
2017-07-21T16:18:13.366Z,27.8
2017-07-21T16:19:34.958Z,27.7
2017-07-21T16:20:36.331Z,27.6
2017-07-21T16:21:57.891Z,27.3
2017-07-21T16:22:59.263Z,27.5
2017-07-21T16:24:20.864Z,27.6
2017-07-21T16:25:22.236Z,27.5
2017-07-21T16:26:43.794Z,27.5
2017-07-21T16:27:45.169Z,27.6
2017-07-21T16:29:07.276Z,27.5
2017-07-21T16:30:08.649Z,27.3
2017-07-21T16:31:30.206Z,27.3
2017-07-21T16:32:31.579Z,27.5
2017-07-21T16:33:53.178Z,27.6
2017-07-21T16:34:54.550Z,27.6
2017-07-21T16:36:16.112Z,27.5
2017-07-21T16:37:17.483Z,27.4
2017-07-21T16:38:39.080Z,27.3
2017-07-21T16:39:40.451Z,27.3
2017-07-21T16:41:02.523Z,27.5
2017-07-21T16:42:03.897Z,27.5
2017-07-21T16:43:25.491Z,27.5
2017-07-21T16:44:26.865Z,27.5
2017-07-21T16:45:48.422Z,27.5
2017-07-21T16:46:49.797Z,27.5
2017-07-21T16:48:11.394Z,27.4
2017-07-21T16:49:12.766Z,27.2
2017-07-21T16:50:34.402Z,27.2
2017-07-21T16:51:35.772Z,27.3
2017-07-21T16:52:57.380Z,27.3
2017-07-21T16:53:58.755Z,27.4
2017-07-21T16:55:20.350Z,27.4
2017-07-21T16:56:21.719Z,27.5
2017-07-21T16:57:43.282Z,27.5
2017-07-21T16:58:44.655Z,27.6
2017-07-21T17:00:06.247Z,27.7
2017-07-21T17:01:07.623Z,27.8
2017-07-21T17:02:29.180Z,27.8
2017-07-21T17:03:30.554Z,27.7
2017-07-21T17:04:52.149Z,27.7
2017-07-21T17:05:53.522Z,27.6
2017-07-21T17:07:15.084Z,27.7
2017-07-21T17:08:16.471Z,27.8
2017-07-21T17:09:38.051Z,27.6
2017-07-21T17:10:39.426Z,27.4
2017-07-21T17:12:00.986Z,27.3
2017-07-21T17:13:02.361Z,27.3
2017-07-21T17:14:23.957Z,27.3
2017-07-21T17:15:25.329Z,27.4
2017-07-21T17:16:46.888Z,27.5
2017-07-21T17:17:48.260Z,27.5
2017-07-21T17:19:09.856Z,27.4
2017-07-21T17:20:11.227Z,27.3
2017-07-21T17:21:32.787Z,27.2
2017-07-21T17:22:34.162Z,27.2
2017-07-21T17:23:55.773Z,27.3
2017-07-21T17:24:57.135Z,27.0
2017-07-21T17:26:18.689Z,27.1
2017-07-21T17:27:20.061Z,27.2
2017-07-21T17:28:41.657Z,27.3
2017-07-21T17:29:43.029Z,27.2
2017-07-21T17:31:04.593Z,27.2
2017-07-21T17:32:05.986Z,27.4
2017-07-21T17:33:27.561Z,27.3
2017-07-21T17:34:28.934Z,27.5
2017-07-21T17:35:50.492Z,27.6
2017-07-21T17:36:51.865Z,27.5
2017-07-21T17:38:13.449Z,27.7
2017-07-21T17:39:14.820Z,27.6
2017-07-21T17:40:36.413Z,27.7
2017-07-21T17:41:37.787Z,27.7
2017-07-21T17:42:59.347Z,27.8
2017-07-21T17:44:00.719Z,27.8
2017-07-21T17:45:22.829Z,27.8
2017-07-21T17:46:24.202Z,27.9
2017-07-21T17:47:45.757Z,27.8
2017-07-21T17:48:47.131Z,27.9
2017-07-21T17:50:08.732Z,27.9
2017-07-21T17:51:10.100Z,27.9
2017-07-21T17:52:31.659Z,27.8
2017-07-21T17:53:33.033Z,27.7
2017-07-21T17:54:54.630Z,27.8
2017-07-21T17:55:56.004Z,27.8
2017-07-21T17:57:17.561Z,27.8
2017-07-21T17:58:18.934Z,27.9
2017-07-21T17:59:40.530Z,28.0
2017-07-21T18:00:41.902Z,28.2
2017-07-21T18:02:03.464Z,28.3
2017-07-21T18:03:04.840Z,28.5
2017-07-21T18:04:26.430Z,28.5
2017-07-21T18:05:27.803Z,28.6
2017-07-21T18:06:49.366Z,28.7
2017-07-21T18:07:50.738Z,28.9
2017-07-21T18:09:12.333Z,28.9
2017-07-21T18:10:13.706Z,29.0
2017-07-21T18:11:35.266Z,29.1
2017-07-21T18:12:36.647Z,29.0
2017-07-21T18:13:58.238Z,29.1
2017-07-21T18:14:59.612Z,29.1
2017-07-21T18:16:21.193Z,29.0
2017-07-21T18:17:22.573Z,29.2
2017-07-21T18:18:44.140Z,29.5
2017-07-21T18:19:45.516Z,29.5
2017-07-21T18:21:07.070Z,29.5
2017-07-21T18:22:08.444Z,29.6
2017-07-21T18:23:30.019Z,29.6
2017-07-21T18:24:31.391Z,29.6
2017-07-21T18:25:52.989Z,29.6
2017-07-21T18:26:54.362Z,29.3
2017-07-21T18:28:15.921Z,29.2
2017-07-21T18:29:17.292Z,29.0
2017-07-21T18:30:38.894Z,29.0
2017-07-21T18:31:40.267Z,29.0
2017-07-21T18:33:01.822Z,28.9
2017-07-21T18:34:03.213Z,28.8
2017-07-21T18:35:27.759Z,28.7
2017-07-21T18:54:40.994Z,26.9
2017-07-21T18:55:42.363Z,26.8
2017-07-21T18:57:03.923Z,26.7
2017-07-21T18:58:05.299Z,26.6
2017-07-21T18:59:26.898Z,26.5
2017-07-21T19:00:28.263Z,26.5
2017-07-21T19:01:49.824Z,26.4
2017-07-21T19:02:51.198Z,26.3
2017-07-21T19:04:12.796Z,26.3
2017-07-21T19:05:14.166Z,26.1
2017-07-21T19:06:35.727Z,26.1
2017-07-21T19:07:37.099Z,26.0
2017-07-21T19:08:58.695Z,26.1
2017-07-21T19:10:00.091Z,26.0
2017-07-21T19:11:22.159Z,25.9
2017-07-21T19:12:23.532Z,25.9
2017-07-21T19:13:45.095Z,25.8
2017-07-21T19:14:46.873Z,25.7
2017-07-21T19:16:08.469Z,25.7
2017-07-21T19:17:09.837Z,25.6
2017-07-21T19:18:31.399Z,25.6
2017-07-21T19:19:32.771Z,25.6
2017-07-21T19:20:54.374Z,25.6
2017-07-21T19:21:55.745Z,25.6
2017-07-21T19:23:17.813Z,25.5
2017-07-21T19:24:19.181Z,25.5
2017-07-21T19:25:40.789Z,25.4
2017-07-21T19:26:42.159Z,25.3
2017-07-21T19:28:03.722Z,25.3
2017-07-21T19:29:05.092Z,25.2
2017-07-21T19:30:26.685Z,25.1
2017-07-21T19:31:28.062Z,25.1
2017-07-21T19:32:49.617Z,25.1
2017-07-21T19:33:50.986Z,25.1
2017-07-21T19:35:12.588Z,25.1
2017-07-21T19:36:13.957Z,25.0
2017-07-21T19:37:35.539Z,24.9
2017-07-21T19:38:36.909Z,24.9
2017-07-21T19:39:59.100Z,24.9
2017-07-21T19:41:00.465Z,24.8
2017-07-21T19:42:22.544Z,24.9
2017-07-21T19:43:23.915Z,24.8
2017-07-21T19:44:45.515Z,24.7
2017-07-21T19:45:46.882Z,24.7
2017-07-21T19:47:08.954Z,24.6
2017-07-21T19:48:10.324Z,24.6
2017-07-21T19:49:31.928Z,24.6
2017-07-21T19:50:33.296Z,24.6
2017-07-21T19:51:54.858Z,24.5
2017-07-21T19:52:56.226Z,24.4
2017-07-21T19:54:17.810Z,24.4
2017-07-21T19:55:19.176Z,24.4
2017-07-21T19:56:40.783Z,24.2
2017-07-21T19:57:42.150Z,24.2
2017-07-21T19:59:03.713Z,24.1